Bahrain International Airport
OBBI : now visible

Aeroporto :











RITROVATECI SU...

 
LOGIN :

Iscrizione | Disclaimer

   EN    FR    IT 

 









Sommario :    VFR   VFR Marginale   IFR   IFR Intensivo   IFR Molto Intensivo
Visibilità : 
Base nubi : 
>= 8 km
>= 3000ft
5 / 8 km
1000 / 3000 ft
1500m / 5 km
500 / 1000 ft
800 / 1500m
200 / 500 ft
< 800m
< 200 ft
Simboli :   Temporali  Nebbia  Neve Forte  Precipitazioni Forti  Vento > 20 kt







- Altitudine del aeroporto : 6 ft
- Codice IATA : BAH


OBBI - Bahrain International

ULTIMO METAR :
  • 231800Z 10015KT CAVOK 23/17 Q1010 NOSIG

METARs OBSOLETI :
  • 231730Z 10014KT CAVOK 23/17 Q1011 NOSIG
  • 231700Z 10014KT CAVOK 22/17 Q1011 NOSIG
  • 231630Z 11014KT CAVOK 22/17 Q1010 NOSIG
  • 231600Z 10013KT CAVOK 22/17 Q1010 NOSIG
  • 231530Z 10013KT CAVOK 22/18 Q1010 NOSIG

TAF TAF OBBI
Valido dal 23 a 18 ore il 25 a 00 ore UTC


231700Z 2318/2500 09015KT 8000 NSC
FIR OBBB / Asia



MetMap, La meteo Aeronautica in un colpo d'occhio ! - Copyright ORBIFLY Dicembre 2007 - Disclaimer

ORBIFLY MET'MAP TEAM :

Programmazione e sviluppo : Alexandra Zaïnal
Concezione e sviluppo : Baudouin d'Aumeries
Co-Programmazione e sviluppo : Marc-Olivier Méhu
Supporto tecnico e logistico : Manuel Goepfert
Aiuto per la traduzione : Arnaldo La Scala

Contatto : metmap@orbifly.com




FONTI E CREDITI :

   NOAA       Earth
Advisory